<?xml version="1.0" encoding="UTF-8"?><gpx creator="Wikiloc - https://www.wikiloc.com" version="1.1" xmlns="http://www.topografix.com/GPX/1/1" xmlns:xsi="http://www.w3.org/2001/XMLSchema-instance" xsi:schemaLocation="http://www.topografix.com/GPX/1/1 http://www.topografix.com/GPX/1/1/gpx.xsd"><trk><name>PR-BA 110 'Cegón' (Fregenal de la Sierra)</name><cmt></cmt><desc></desc><trkseg><trkpt lat="38.163154" lon="-6.654282"><ele>560.0</ele><time>2017-07-06T11:06:49Z</time></trkpt><trkpt lat="38.162648" lon="-6.654282"><ele>556.0</ele><time>2017-07-06T11:07:29Z</time></trkpt><trkpt lat="38.162075" lon="-6.654239"><ele>547.0</ele><time>2017-07-06T11:08:09Z</time></trkpt><trkpt lat="38.161400" lon="-6.654196"><ele>548.0</ele><time>2017-07-06T11:08:49Z</time></trkpt><trkpt lat="38.160826" lon="-6.654196"><ele>553.0</ele><time>2017-07-06T11:09:29Z</time></trkpt><trkpt lat="38.160185" lon="-6.654153"><ele>555.0</ele><time>2017-07-06T11:10:09Z</time></trkpt><trkpt lat="38.159443" lon="-6.654067"><ele>553.0</ele><time>2017-07-06T11:10:49Z</time></trkpt><trkpt lat="38.158464" lon="-6.653552"><ele>548.0</ele><time>2017-07-06T11:11:29Z</time></trkpt><trkpt lat="38.157755" lon="-6.653080"><ele>543.0</ele><time>2017-07-06T11:12:09Z</time></trkpt><trkpt lat="38.156541" lon="-6.652479"><ele>540.0</ele><time>2017-07-06T11:12:49Z</time></trkpt><trkpt lat="38.155933" lon="-6.652265"><ele>543.0</ele><time>2017-07-06T11:13:29Z</time></trkpt><trkpt lat="38.154921" lon="-6.651750"><ele>550.0</ele><time>2017-07-06T11:14:09Z</time></trkpt><trkpt lat="38.154077" lon="-6.651449"><ele>543.0</ele><time>2017-07-06T11:14:49Z</time></trkpt><trkpt lat="38.153436" lon="-6.651278"><ele>528.0</ele><time>2017-07-06T11:15:29Z</time></trkpt><trkpt lat="38.152525" lon="-6.650548"><ele>523.0</ele><time>2017-07-06T11:16:09Z</time></trkpt><trkpt lat="38.151647" lon="-6.650076"><ele>521.0</ele><time>2017-07-06T11:16:49Z</time></trkpt><trkpt lat="38.150804" lon="-6.649861"><ele>522.0</ele><time>2017-07-06T11:17:29Z</time></trkpt><trkpt lat="38.149994" lon="-6.649733"><ele>523.0</ele><time>2017-07-06T11:18:09Z</time></trkpt><trkpt lat="38.149622" lon="-6.649389"><ele>525.0</ele><time>2017-07-06T11:18:49Z</time></trkpt><trkpt lat="38.149420" lon="-6.649046"><ele>528.0</ele><time>2017-07-06T11:19:29Z</time></trkpt><trkpt lat="38.149184" lon="-6.649475"><ele>527.0</ele><time>2017-07-06T11:20:09Z</time></trkpt><trkpt lat="38.148914" lon="-6.649776"><ele>526.0</ele><time>2017-07-06T11:20:49Z</time></trkpt><trkpt lat="38.148576" lon="-6.649947"><ele>525.0</ele><time>2017-07-06T11:21:29Z</time></trkpt><trkpt lat="38.148272" lon="-6.650205"><ele>524.0</ele><time>2017-07-06T11:22:09Z</time></trkpt><trkpt lat="38.147935" lon="-6.650290"><ele>524.0</ele><time>2017-07-06T11:22:49Z</time></trkpt><trkpt lat="38.147361" lon="-6.650290"><ele>522.0</ele><time>2017-07-06T11:23:29Z</time></trkpt><trkpt lat="38.146787" lon="-6.650419"><ele>519.0</ele><time>2017-07-06T11:24:09Z</time></trkpt><trkpt lat="38.146079" lon="-6.650634"><ele>520.0</ele><time>2017-07-06T11:24:49Z</time></trkpt><trkpt lat="38.145437" lon="-6.650677"><ele>523.0</ele><time>2017-07-06T11:25:29Z</time></trkpt><trkpt lat="38.145032" lon="-6.650848"><ele>525.0</ele><time>2017-07-06T11:26:09Z</time></trkpt><trkpt lat="38.144594" lon="-6.651149"><ele>525.0</ele><time>2017-07-06T11:26:49Z</time></trkpt><trkpt lat="38.144222" lon="-6.651192"><ele>522.0</ele><time>2017-07-06T11:27:29Z</time></trkpt><trkpt lat="38.143581" lon="-6.651235"><ele>516.0</ele><time>2017-07-06T11:28:09Z</time></trkpt><trkpt lat="38.142940" lon="-6.651020"><ele>510.0</ele><time>2017-07-06T11:28:49Z</time></trkpt><trkpt lat="38.142501" lon="-6.650934"><ele>509.0</ele><time>2017-07-06T11:29:29Z</time></trkpt><trkpt lat="38.142029" lon="-6.650891"><ele>512.0</ele><time>2017-07-06T11:30:09Z</time></trkpt><trkpt lat="38.141691" lon="-6.651063"><ele>513.0</ele><time>2017-07-06T11:30:49Z</time></trkpt><trkpt lat="38.141151" lon="-6.651149"><ele>513.0</ele><time>2017-07-06T11:31:29Z</time></trkpt><trkpt lat="38.140611" lon="-6.651149"><ele>510.0</ele><time>2017-07-06T11:32:09Z</time></trkpt><trkpt lat="38.140105" lon="-6.651063"><ele>508.0</ele><time>2017-07-06T11:32:49Z</time></trkpt><trkpt lat="38.139632" lon="-6.650805"><ele>506.0</ele><time>2017-07-06T11:33:29Z</time></trkpt><trkpt lat="38.139295" lon="-6.650634"><ele>508.0</ele><time>2017-07-06T11:34:09Z</time></trkpt><trkpt lat="38.138282" lon="-6.650376"><ele>504.0</ele><time>2017-07-06T11:34:49Z</time></trkpt><trkpt lat="38.137708" lon="-6.650376"><ele>507.0</ele><time>2017-07-06T11:35:29Z</time></trkpt><trkpt lat="38.137236" lon="-6.650763"><ele>515.0</ele><time>2017-07-06T11:36:09Z</time></trkpt><trkpt lat="38.136864" lon="-6.651235"><ele>519.0</ele><time>2017-07-06T11:36:49Z</time></trkpt><trkpt lat="38.136628" lon="-6.651835"><ele>522.0</ele><time>2017-07-06T11:37:29Z</time></trkpt><trkpt lat="38.136257" lon="-6.652179"><ele>520.0</ele><time>2017-07-06T11:38:09Z</time></trkpt><trkpt lat="38.136088" lon="-6.652436"><ele>518.0</ele><time>2017-07-06T11:38:49Z</time></trkpt><trkpt lat="38.135852" lon="-6.652608"><ele>517.0</ele><time>2017-07-06T11:39:29Z</time></trkpt><trkpt lat="38.135615" lon="-6.652865"><ele>515.0</ele><time>2017-07-06T11:40:09Z</time></trkpt><trkpt lat="38.135312" lon="-6.653252"><ele>514.0</ele><time>2017-07-06T11:40:49Z</time></trkpt><trkpt lat="38.134940" lon="-6.653509"><ele>514.0</ele><time>2017-07-06T11:41:29Z</time></trkpt><trkpt lat="38.134434" lon="-6.653724"><ele>511.0</ele><time>2017-07-06T11:42:09Z</time></trkpt><trkpt lat="38.134096" lon="-6.654067"><ele>514.0</ele><time>2017-07-06T11:42:49Z</time></trkpt><trkpt lat="38.133759" lon="-6.654239"><ele>516.0</ele><time>2017-07-06T11:43:29Z</time></trkpt><trkpt lat="38.133354" lon="-6.654539"><ele>527.0</ele><time>2017-07-06T11:44:09Z</time></trkpt><trkpt lat="38.132544" lon="-6.655011"><ele>544.0</ele><time>2017-07-06T11:44:49Z</time></trkpt><trkpt lat="38.132037" lon="-6.655097"><ele>542.0</ele><time>2017-07-06T11:45:29Z</time></trkpt><trkpt lat="38.131396" lon="-6.655354"><ele>539.0</ele><time>2017-07-06T11:46:09Z</time></trkpt><trkpt lat="38.130349" lon="-6.655655"><ele>542.0</ele><time>2017-07-06T11:46:49Z</time></trkpt><trkpt lat="38.129877" lon="-6.655912"><ele>544.0</ele><time>2017-07-06T11:47:29Z</time></trkpt><trkpt lat="38.129168" lon="-6.656127"><ele>549.0</ele><time>2017-07-06T11:48:09Z</time></trkpt><trkpt lat="38.128729" lon="-6.656470"><ele>552.0</ele><time>2017-07-06T11:48:49Z</time></trkpt><trkpt lat="38.128358" lon="-6.657071"><ele>557.0</ele><time>2017-07-06T11:49:29Z</time></trkpt><trkpt lat="38.127986" lon="-6.657629"><ele>562.0</ele><time>2017-07-06T11:50:09Z</time></trkpt><trkpt lat="38.127446" lon="-6.658359"><ele>565.0</ele><time>2017-07-06T11:50:49Z</time></trkpt><trkpt lat="38.126872" lon="-6.658959"><ele>564.0</ele><time>2017-07-06T11:51:29Z</time></trkpt><trkpt lat="38.126231" lon="-6.659431"><ele>561.0</ele><time>2017-07-06T11:52:09Z</time></trkpt><trkpt lat="38.125556" lon="-6.659946"><ele>551.0</ele><time>2017-07-06T11:52:49Z</time></trkpt><trkpt lat="38.124813" lon="-6.660247"><ele>541.0</ele><time>2017-07-06T11:53:29Z</time></trkpt><trkpt lat="38.124340" lon="-6.660676"><ele>541.0</ele><time>2017-07-06T11:54:09Z</time></trkpt><trkpt lat="38.124036" lon="-6.661105"><ele>543.0</ele><time>2017-07-06T11:54:49Z</time></trkpt><trkpt lat="38.124577" lon="-6.661491"><ele>544.0</ele><time>2017-07-06T11:55:29Z</time></trkpt><trkpt lat="38.125184" lon="-6.662092"><ele>553.0</ele><time>2017-07-06T11:56:09Z</time></trkpt><trkpt lat="38.125617" lon="-6.662350"><ele>559.0</ele><time>2017-07-06T11:56:49Z</time></trkpt><trkpt lat="38.126191" lon="-6.663830"><ele>556.0</ele><time>2017-07-06T11:57:29Z</time></trkpt><trkpt lat="38.126495" lon="-6.664453"><ele>560.0</ele><time>2017-07-06T11:58:09Z</time></trkpt><trkpt lat="38.126765" lon="-6.665332"><ele>565.0</ele><time>2017-07-06T11:58:49Z</time></trkpt><trkpt lat="38.127018" lon="-6.665719"><ele>566.0</ele><time>2017-07-06T11:59:29Z</time></trkpt><trkpt lat="38.128014" lon="-6.666899"><ele>577.0</ele><time>2017-07-06T12:00:09Z</time></trkpt><trkpt lat="38.128571" lon="-6.667650"><ele>576.0</ele><time>2017-07-06T12:00:49Z</time></trkpt><trkpt lat="38.129162" lon="-6.668401"><ele>575.0</ele><time>2017-07-06T12:01:29Z</time></trkpt><trkpt lat="38.129651" lon="-6.668873"><ele>576.0</ele><time>2017-07-06T12:02:09Z</time></trkpt><trkpt lat="38.130715" lon="-6.669860"><ele>590.0</ele><time>2017-07-06T12:02:49Z</time></trkpt><trkpt lat="38.130951" lon="-6.669989"><ele>592.0</ele><time>2017-07-06T12:03:29Z</time></trkpt><trkpt lat="38.131660" lon="-6.669903"><ele>593.0</ele><time>2017-07-06T12:04:09Z</time></trkpt><trkpt lat="38.132436" lon="-6.669667"><ele>592.0</ele><time>2017-07-06T12:04:49Z</time></trkpt><trkpt lat="38.133094" lon="-6.669495"><ele>589.0</ele><time>2017-07-06T12:05:29Z</time></trkpt><trkpt lat="38.133888" lon="-6.669345"><ele>587.0</ele><time>2017-07-06T12:06:09Z</time></trkpt><trkpt lat="38.134428" lon="-6.669087"><ele>585.0</ele><time>2017-07-06T12:06:49Z</time></trkpt><trkpt lat="38.135120" lon="-6.668658"><ele>582.0</ele><time>2017-07-06T12:07:29Z</time></trkpt><trkpt lat="38.135879" lon="-6.668508"><ele>578.0</ele><time>2017-07-06T12:08:09Z</time></trkpt><trkpt lat="38.136521" lon="-6.668315"><ele>574.0</ele><time>2017-07-06T12:08:49Z</time></trkpt><trkpt lat="38.136926" lon="-6.668594"><ele>576.0</ele><time>2017-07-06T12:09:29Z</time></trkpt><trkpt lat="38.137145" lon="-6.668766"><ele>580.0</ele><time>2017-07-06T12:10:09Z</time></trkpt><trkpt lat="38.137719" lon="-6.668551"><ele>578.0</ele><time>2017-07-06T12:10:49Z</time></trkpt><trkpt lat="38.138225" lon="-6.668293"><ele>577.0</ele><time>2017-07-06T12:11:29Z</time></trkpt><trkpt lat="38.138968" lon="-6.668315"><ele>581.0</ele><time>2017-07-06T12:12:09Z</time></trkpt><trkpt lat="38.139508" lon="-6.668122"><ele>585.0</ele><time>2017-07-06T12:12:49Z</time></trkpt><trkpt lat="38.140183" lon="-6.667907"><ele>590.0</ele><time>2017-07-06T12:13:29Z</time></trkpt><trkpt lat="38.140824" lon="-6.667521"><ele>595.0</ele><time>2017-07-06T12:14:09Z</time></trkpt><trkpt lat="38.141297" lon="-6.667264"><ele>600.0</ele><time>2017-07-06T12:14:49Z</time></trkpt><trkpt lat="38.142039" lon="-6.667027"><ele>599.0</ele><time>2017-07-06T12:15:29Z</time></trkpt><trkpt lat="38.142613" lon="-6.666899"><ele>598.0</ele><time>2017-07-06T12:16:09Z</time></trkpt><trkpt lat="38.143187" lon="-6.667049"><ele>598.0</ele><time>2017-07-06T12:16:49Z</time></trkpt><trkpt lat="38.143423" lon="-6.666706"><ele>598.0</ele><time>2017-07-06T12:17:29Z</time></trkpt><trkpt lat="38.144081" lon="-6.666405"><ele>608.0</ele><time>2017-07-06T12:18:09Z</time></trkpt><trkpt lat="38.144908" lon="-6.666062"><ele>611.0</ele><time>2017-07-06T12:18:49Z</time></trkpt><trkpt lat="38.145971" lon="-6.665697"><ele>601.0</ele><time>2017-07-06T12:19:29Z</time></trkpt><trkpt lat="38.146545" lon="-6.665847"><ele>598.0</ele><time>2017-07-06T12:20:09Z</time></trkpt><trkpt lat="38.147355" lon="-6.665654"><ele>596.0</ele><time>2017-07-06T12:20:49Z</time></trkpt><trkpt lat="38.148384" lon="-6.665633"><ele>598.0</ele><time>2017-07-06T12:21:29Z</time></trkpt><trkpt lat="38.149042" lon="-6.665826"><ele>602.0</ele><time>2017-07-06T12:22:09Z</time></trkpt><trkpt lat="38.149701" lon="-6.665998"><ele>603.0</ele><time>2017-07-06T12:22:49Z</time></trkpt><trkpt lat="38.150578" lon="-6.666319"><ele>599.0</ele><time>2017-07-06T12:23:29Z</time></trkpt><trkpt lat="38.151337" lon="-6.666405"><ele>590.0</ele><time>2017-07-06T12:24:09Z</time></trkpt><trkpt lat="38.152147" lon="-6.666255"><ele>585.0</ele><time>2017-07-06T12:24:49Z</time></trkpt><trkpt lat="38.152974" lon="-6.666169"><ele>585.0</ele><time>2017-07-06T12:25:29Z</time></trkpt><trkpt lat="38.153919" lon="-6.666040"><ele>586.0</ele><time>2017-07-06T12:26:09Z</time></trkpt><trkpt lat="38.154948" lon="-6.665268"><ele>592.0</ele><time>2017-07-06T12:26:49Z</time></trkpt><trkpt lat="38.155843" lon="-6.664753"><ele>585.0</ele><time>2017-07-06T12:27:29Z</time></trkpt><trkpt lat="38.156534" lon="-6.664302"><ele>576.0</ele><time>2017-07-06T12:28:09Z</time></trkpt><trkpt lat="38.158755" lon="-6.664324"><ele>566.0</ele><time>2017-07-06T12:28:49Z</time></trkpt><trkpt lat="38.159150" lon="-6.663895"><ele>561.0</ele><time>2017-07-06T12:29:29Z</time></trkpt><trkpt lat="38.159436" lon="-6.663444"><ele>558.0</ele><time>2017-07-06T12:30:09Z</time></trkpt><trkpt lat="38.159706" lon="-6.662693"><ele>559.0</ele><time>2017-07-06T12:30:49Z</time></trkpt><trkpt lat="38.160010" lon="-6.661921"><ele>562.0</ele><time>2017-07-06T12:31:29Z</time></trkpt><trkpt lat="38.160364" lon="-6.661384"><ele>565.0</ele><time>2017-07-06T12:32:09Z</time></trkpt><trkpt lat="38.160887" lon="-6.660590"><ele>564.0</ele><time>2017-07-06T12:32:49Z</time></trkpt><trkpt lat="38.161208" lon="-6.660011"><ele>560.0</ele><time>2017-07-06T12:33:29Z</time></trkpt><trkpt lat="38.161630" lon="-6.659431"><ele>563.0</ele><time>2017-07-06T12:34:09Z</time></trkpt><trkpt lat="38.162052" lon="-6.658959"><ele>566.0</ele><time>2017-07-06T12:34:49Z</time></trkpt><trkpt lat="38.162338" lon="-6.657522"><ele>563.0</ele><time>2017-07-06T12:35:29Z</time></trkpt><trkpt lat="38.162659" lon="-6.656299"><ele>558.0</ele><time>2017-07-06T12:36:09Z</time></trkpt><trkpt lat="38.163199" lon="-6.654410"><ele>564.0</ele><time>2017-07-06T12:36:49Z</time></trkpt></trkseg></trk></gpx>